Weather at Berlin-Tegel Otto Lilienthal Airport [CLOSED]

Public forecast

Using degrees Celsius for public forecast. Weather courtesy of forecast.io.

Closest aviation weather report (METAR) to Berlin-Tegel Otto Lilienthal Airport

Report is more than 6 hours old.

Closest report is Berlin Brandenburg Airport, 14.2 nm (26.3 km) SSE.

2022/11/14 15:20 (retrieved 2 years ago)

EDDB 141520Z AUTO 09006KT CAVOK 08/06 Q1017 NOSIG

Closest aviation forecast (TAF) to Berlin-Tegel Otto Lilienthal Airport

Forecast is more than 12 hours old.

Closest forecast is Berlin Brandenburg Airport, 14.2 nm (26.3 km) SSE.

2023/02/22 18:27 (retrieved 1 year ago)

TAF TAF EDDB 221700Z 2218/2318 10008KT 9999 FEW030 BECMG 2304/2306 17005KT BECMG 2310/2312 25006KT